sensor_id;sensor_type;location;lat;lon;timestamp;pressure;altitude;pressure_sealevel;temperature;humidity
34983;BME280;21187;50.976;13.720;2024-03-07T00:00:17;99012.41;;;7.47;50.26
34983;BME280;21187;50.976;13.720;2024-03-07T00:05:21;99007.91;;;7.42;50.37
34983;BME280;21187;50.976;13.720;2024-03-07T00:10:26;99010.06;;;7.31;50.55
34983;BME280;21187;50.976;13.720;2024-03-07T00:15:28;99008.25;;;7.18;51.41
34983;BME280;21187;50.976;13.720;2024-03-07T00:20:31;99013.00;;;6.98;52.26
34983;BME280;21187;50.976;13.720;2024-03-07T00:25:33;99014.06;;;6.75;53.19
34983;BME280;21187;50.976;13.720;2024-03-07T00:30:35;99002.25;;;6.85;53.00
34983;BME280;21187;50.976;13.720;2024-03-07T00:35:37;99005.72;;;6.99;52.70
34983;BME280;21187;50.976;13.720;2024-03-07T00:40:39;99000.19;;;7.04;52.03
34983;BME280;21187;50.976;13.720;2024-03-07T00:45:41;98996.59;;;7.09;52.25
34983;BME280;21187;50.976;13.720;2024-03-07T00:50:43;98992.00;;;7.09;52.08
34983;BME280;21187;50.976;13.720;2024-03-07T00:55:45;98984.22;;;7.08;52.48
34983;BME280;21187;50.976;13.720;2024-03-07T01:00:46;98980.72;;;7.07;52.51
34983;BME280;21187;50.976;13.720;2024-03-07T01:05:49;98977.44;;;7.10;52.40
34983;BME280;21187;50.976;13.720;2024-03-07T01:10:51;98978.41;;;7.14;52.59
34983;BME280;21187;50.976;13.720;2024-03-07T01:15:54;98970.22;;;7.20;52.45
34983;BME280;21187;50.976;13.720;2024-03-07T01:20:56;98972.78;;;7.25;52.65
34983;BME280;21187;50.976;13.720;2024-03-07T01:25:58;98968.19;;;7.25;52.62
34983;BME280;21187;50.976;13.720;2024-03-07T01:31:00;98977.06;;;7.26;52.76
34983;BME280;21187;50.976;13.720;2024-03-07T01:36:02;98971.53;;;7.31;52.92
34983;BME280;21187;50.976;13.720;2024-03-07T01:41:06;98974.09;;;7.36;53.01
34983;BME280;21187;50.976;13.720;2024-03-07T01:46:09;98968.13;;;7.39;53.45
34983;BME280;21187;50.976;13.720;2024-03-07T01:51:12;98969.09;;;7.43;53.45
34983;BME280;21187;50.976;13.720;2024-03-07T01:56:14;98963.69;;;7.43;53.46
34983;BME280;21187;50.976;13.720;2024-03-07T02:01:16;98963.38;;;7.45;53.45
34983;BME280;21187;50.976;13.720;2024-03-07T02:06:18;98958.50;;;7.47;53.92
34983;BME280;21187;50.976;13.720;2024-03-07T02:11:20;98946.28;;;7.49;53.35
34983;BME280;21187;50.976;13.720;2024-03-07T02:16:23;98942.66;;;7.54;53.42
34983;BME280;21187;50.976;13.720;2024-03-07T02:21:25;98948.84;;;7.55;53.56
34983;BME280;21187;50.976;13.720;2024-03-07T02:26:27;98952.81;;;7.57;53.73
34983;BME280;21187;50.976;13.720;2024-03-07T02:31:29;98947.25;;;7.54;54.21
34983;BME280;21187;50.976;13.720;2024-03-07T02:36:38;98950.56;;;7.50;53.96
34983;BME280;21187;50.976;13.720;2024-03-07T02:41:40;98948.84;;;7.55;54.00
34983;BME280;21187;50.976;13.720;2024-03-07T02:46:42;98934.75;;;7.58;53.83
34983;BME280;21187;50.976;13.720;2024-03-07T02:51:44;98926.03;;;7.61;54.50
34983;BME280;21187;50.976;13.720;2024-03-07T02:56:47;98935.59;;;7.67;54.14
34983;BME280;21187;50.976;13.720;2024-03-07T03:01:49;98927.34;;;7.72;54.15
34983;BME280;21187;50.976;13.720;2024-03-07T03:06:50;98926.72;;;7.75;54.52
34983;BME280;21187;50.976;13.720;2024-03-07T03:11:52;98935.31;;;7.77;54.27
34983;BME280;21187;50.976;13.720;2024-03-07T03:16:54;98929.75;;;7.74;54.38
34983;BME280;21187;50.976;13.720;2024-03-07T03:21:58;98922.94;;;7.76;54.42
34983;BME280;21187;50.976;13.720;2024-03-07T03:27:00;98927.50;;;7.76;54.38
34983;BME280;21187;50.976;13.720;2024-03-07T03:32:02;98927.34;;;7.72;54.33
34983;BME280;21187;50.976;13.720;2024-03-07T03:37:05;98920.38;;;7.71;53.96
34983;BME280;21187;50.976;13.720;2024-03-07T03:42:07;98923.19;;;7.66;54.35
34983;BME280;21187;50.976;13.720;2024-03-07T03:47:09;98924.13;;;7.61;54.40
34983;BME280;21187;50.976;13.720;2024-03-07T03:52:11;98917.47;;;7.59;54.64
34983;BME280;21187;50.976;13.720;2024-03-07T03:57:13;98920.00;;;7.55;54.33
34983;BME280;21187;50.976;13.720;2024-03-07T04:02:15;98916.34;;;7.51;54.45
34983;BME280;21187;50.976;13.720;2024-03-07T04:07:19;98919.16;;;7.46;54.64
34983;BME280;21187;50.976;13.720;2024-03-07T04:12:21;98923.75;;;7.45;54.59
34983;BME280;21187;50.976;13.720;2024-03-07T04:17:23;98927.56;;;7.44;54.77
34983;BME280;21187;50.976;13.720;2024-03-07T04:22:25;98923.75;;;7.45;54.87
34983;BME280;21187;50.976;13.720;2024-03-07T04:27:28;98923.75;;;7.45;55.04
34983;BME280;21187;50.976;13.720;2024-03-07T04:32:31;98918.34;;;7.45;54.51
34983;BME280;21187;50.976;13.720;2024-03-07T04:37:34;98914.56;;;7.46;54.63
34983;BME280;21187;50.976;13.720;2024-03-07T04:42:39;98918.97;;;7.42;54.96
34983;BME280;21187;50.976;13.720;2024-03-07T04:47:42;98924.19;;;7.39;54.83
34983;BME280;21187;50.976;13.720;2024-03-07T04:52:46;98931.16;;;7.40;54.70
34983;BME280;21187;50.976;13.720;2024-03-07T04:57:50;98938.47;;;7.39;54.69
34983;BME280;21187;50.976;13.720;2024-03-07T05:02:53;98934.66;;;7.40;54.64
34983;BME280;21187;50.976;13.720;2024-03-07T05:07:55;98941.16;;;7.39;55.15
34983;BME280;21187;50.976;13.720;2024-03-07T05:12:57;98942.22;;;7.29;54.56
34983;BME280;21187;50.976;13.720;2024-03-07T05:18:02;98947.44;;;7.26;54.97
34983;BME280;21187;50.976;13.720;2024-03-07T05:23:04;98941.88;;;7.22;54.62
34983;BME280;21187;50.976;13.720;2024-03-07T05:28:07;98947.06;;;7.19;54.55
34983;BME280;21187;50.976;13.720;2024-03-07T05:33:08;98944.19;;;7.15;54.50
34983;BME280;21187;50.976;13.720;2024-03-07T05:38:11;98941.31;;;7.11;54.34
34983;BME280;21187;50.976;13.720;2024-03-07T05:43:14;98947.63;;;7.07;54.30
34983;BME280;21187;50.976;13.720;2024-03-07T05:48:16;98952.16;;;6.97;54.35
34983;BME280;21187;50.976;13.720;2024-03-07T05:53:19;98949.38;;;6.89;54.24
34983;BME280;21187;50.976;13.720;2024-03-07T05:58:21;98952.81;;;6.80;54.11
34983;BME280;21187;50.976;13.720;2024-03-07T06:03:23;98955.63;;;6.75;54.04
34983;BME280;21187;50.976;13.720;2024-03-07T06:08:27;98964.94;;;6.69;53.74
34983;BME280;21187;50.976;13.720;2024-03-07T06:13:29;98970.81;;;6.71;54.03
34983;BME280;21187;50.976;13.720;2024-03-07T06:18:31;98981.75;;;6.75;53.84
34983;BME280;21187;50.976;13.720;2024-03-07T06:23:33;98974.00;;;6.73;53.55
34983;BME280;21187;50.976;13.720;2024-03-07T06:28:35;98973.50;;;6.71;53.50
34983;BME280;21187;50.976;13.720;2024-03-07T06:33:37;98975.56;;;6.74;53.53
34983;BME280;21187;50.976;13.720;2024-03-07T06:38:39;98981.38;;;6.68;53.36
34983;BME280;21187;50.976;13.720;2024-03-07T06:43:43;98981.19;;;6.64;53.24
34983;BME280;21187;50.976;13.720;2024-03-07T06:48:46;98980.22;;;6.60;53.14
34983;BME280;21187;50.976;13.720;2024-03-07T06:53:48;98982.59;;;6.61;53.18
34983;BME280;21187;50.976;13.720;2024-03-07T06:58:50;98988.47;;;6.63;53.00
34983;BME280;21187;50.976;13.720;2024-03-07T07:03:51;98984.56;;;6.70;53.24
34983;BME280;21187;50.976;13.720;2024-03-07T07:08:56;98987.34;;;6.78;53.01
34983;BME280;21187;50.976;13.720;2024-03-07T07:13:58;98981.97;;;7.01;53.15
34983;BME280;21187;50.976;13.720;2024-03-07T07:19:00;98984.34;;;7.25;52.88
34983;BME280;21187;50.976;13.720;2024-03-07T07:24:02;98989.69;;;7.39;53.07
34983;BME280;21187;50.976;13.720;2024-03-07T07:29:04;98990.72;;;7.61;52.92
34983;BME280;21187;50.976;13.720;2024-03-07T07:34:06;98987.63;;;7.76;52.49
34983;BME280;21187;50.976;13.720;2024-03-07T07:39:08;98996.31;;;7.64;52.46
34983;BME280;21187;50.976;13.720;2024-03-07T07:44:18;98995.41;;;7.46;52.37
34983;BME280;21187;50.976;13.720;2024-03-07T07:49:21;98995.19;;;7.34;52.27
34983;BME280;21187;50.976;13.720;2024-03-07T07:54:22;98996.53;;;7.23;52.08
34983;BME280;21187;50.976;13.720;2024-03-07T07:59:26;98995.25;;;7.20;52.15
34983;BME280;21187;50.976;13.720;2024-03-07T08:04:28;98996.19;;;7.15;51.78
34983;BME280;21187;50.976;13.720;2024-03-07T08:09:30;99005.72;;;7.22;51.48
34983;BME280;21187;50.976;13.720;2024-03-07T08:14:31;99004.19;;;7.29;51.29
34983;BME280;21187;50.976;13.720;2024-03-07T08:19:33;99011.22;;;7.39;51.24
34983;BME280;21187;50.976;13.720;2024-03-07T08:24:35;99002.31;;;7.61;51.36
34983;BME280;21187;50.976;13.720;2024-03-07T08:29:37;98996.44;;;7.99;50.62
34983;BME280;21187;50.976;13.720;2024-03-07T08:34:39;98992.13;;;8.39;50.29
34983;BME280;21187;50.976;13.720;2024-03-07T08:39:44;98984.41;;;8.72;49.88
34983;BME280;21187;50.976;13.720;2024-03-07T08:44:46;98983.13;;;8.78;49.69
34983;BME280;21187;50.976;13.720;2024-03-07T08:49:48;98991.25;;;8.61;49.63
34983;BME280;21187;50.976;13.720;2024-03-07T08:54:49;98987.50;;;8.39;48.58
34983;BME280;21187;50.976;13.720;2024-03-07T08:59:51;99001.00;;;8.30;49.06
34983;BME280;21187;50.976;13.720;2024-03-07T09:04:53;98996.06;;;8.24;48.98
34983;BME280;21187;50.976;13.720;2024-03-07T09:09:56;98988.88;;;8.19;48.60
34983;BME280;21187;50.976;13.720;2024-03-07T09:14:57;98990.94;;;8.13;48.81
34983;BME280;21187;50.976;13.720;2024-03-07T09:20:00;98987.59;;;8.08;48.91
34983;BME280;21187;50.976;13.720;2024-03-07T09:25:02;98982.03;;;8.04;48.49
34983;BME280;21187;50.976;13.720;2024-03-07T09:30:05;98981.06;;;8.00;48.33
34983;BME280;21187;50.976;13.720;2024-03-07T09:35:11;98967.44;;;8.05;48.08
34983;BME280;21187;50.976;13.720;2024-03-07T09:40:16;98974.56;;;8.01;47.79
34983;BME280;21187;50.976;13.720;2024-03-07T09:45:20;98971.88;;;8.01;47.40
34983;BME280;21187;50.976;13.720;2024-03-07T09:50:22;98979.97;;;8.01;47.40
34983;BME280;21187;50.976;13.720;2024-03-07T09:55:26;98980.75;;;8.02;47.36
34983;BME280;21187;50.976;13.720;2024-03-07T10:00:29;98972.97;;;8.00;46.98
34983;BME280;21187;50.976;13.720;2024-03-07T10:05:32;98968.06;;;8.02;47.39
34983;BME280;21187;50.976;13.720;2024-03-07T10:10:34;98975.22;;;8.07;47.14
34983;BME280;21187;50.976;13.720;2024-03-07T10:15:36;98967.13;;;8.15;47.49
34983;BME280;21187;50.976;13.720;2024-03-07T10:20:39;98976.22;;;8.20;47.12
34983;BME280;21187;50.976;13.720;2024-03-07T10:25:41;98968.13;;;8.20;46.59
34983;BME280;21187;50.976;13.720;2024-03-07T10:30:44;98969.69;;;8.21;47.33
34983;BME280;21187;50.976;13.720;2024-03-07T10:35:51;98973.03;;;8.18;47.00
34983;BME280;21187;50.976;13.720;2024-03-07T10:40:55;98957.31;;;8.20;46.43
34983;BME280;21187;50.976;13.720;2024-03-07T10:45:58;98966.03;;;8.16;46.92
34983;BME280;21187;50.976;13.720;2024-03-07T10:56:18;98967.66;;;8.26;46.45
34983;BME280;21187;50.976;13.720;2024-03-07T11:01:23;98969.41;;;8.31;46.54
34983;BME280;21187;50.976;13.720;2024-03-07T11:06:27;98964.00;;;8.31;47.00
34983;BME280;21187;50.976;13.720;2024-03-07T11:11:30;98970.31;;;8.18;46.85
34983;BME280;21187;50.976;13.720;2024-03-07T11:16:33;98965.56;;;8.14;46.82
34983;BME280;21187;50.976;13.720;2024-03-07T11:21:41;98967.78;;;8.12;47.07
34983;BME280;21187;50.976;13.720;2024-03-07T11:26:47;98955.69;;;8.01;46.89
34983;BME280;21187;50.976;13.720;2024-03-07T11:31:53;98964.53;;;7.93;46.98
34983;BME280;21187;50.976;13.720;2024-03-07T11:36:55;98976.28;;;7.97;46.98
34983;BME280;21187;50.976;13.720;2024-03-07T11:41:58;98969.19;;;8.01;46.66
34983;BME280;21187;50.976;13.720;2024-03-07T11:47:01;98961.22;;;8.05;47.00
34983;BME280;21187;50.976;13.720;2024-03-07T11:52:10;98954.41;;;8.07;47.25
34983;BME280;21187;50.976;13.720;2024-03-07T11:57:16;98955.84;;;8.05;46.59
34983;BME280;21187;50.976;13.720;2024-03-07T12:02:18;98948.53;;;7.96;46.44
34983;BME280;21187;50.976;13.720;2024-03-07T12:07:23;98960.88;;;7.89;46.90
34983;BME280;21187;50.976;13.720;2024-03-07T12:12:25;98949.13;;;7.85;46.40
34983;BME280;21187;50.976;13.720;2024-03-07T12:17:31;98947.66;;;7.78;46.49
34983;BME280;21187;50.976;13.720;2024-03-07T12:22:35;98948.47;;;7.79;46.15
34983;BME280;21187;50.976;13.720;2024-03-07T12:27:37;98942.91;;;7.75;46.65
34983;BME280;21187;50.976;13.720;2024-03-07T12:32:47;98942.75;;;7.80;46.26
34983;BME280;21187;50.976;13.720;2024-03-07T12:37:49;98953.06;;;7.78;46.29
34983;BME280;21187;50.976;13.720;2024-03-07T12:42:51;98949.72;;;7.73;45.76
34983;BME280;21187;50.976;13.720;2024-03-07T12:47:54;98958.13;;;7.71;45.93
34983;BME280;21187;50.976;13.720;2024-03-07T12:52:56;98948.13;;;7.72;45.58
34983;BME280;21187;50.976;13.720;2024-03-07T12:57:58;98945.28;;;7.77;45.54
34983;BME280;21187;50.976;13.720;2024-03-07T13:03:00;98945.94;;;7.82;45.70
34983;BME280;21187;50.976;13.720;2024-03-07T13:08:02;98946.75;;;7.83;45.54
34983;BME280;21187;50.976;13.720;2024-03-07T13:13:04;98952.13;;;7.83;45.69
34983;BME280;21187;50.976;13.720;2024-03-07T13:18:06;98944.34;;;7.81;45.17
34983;BME280;21187;50.976;13.720;2024-03-07T13:23:10;98941.16;;;7.79;45.05
34983;BME280;21187;50.976;13.720;2024-03-07T13:28:13;98930.25;;;7.85;45.19
34983;BME280;21187;50.976;13.720;2024-03-07T13:33:18;98932.16;;;7.93;45.41
34983;BME280;21187;50.976;13.720;2024-03-07T13:38:20;98936.13;;;7.95;44.78
34983;BME280;21187;50.976;13.720;2024-03-07T13:43:22;98931.72;;;7.99;45.04
34983;BME280;21187;50.976;13.720;2024-03-07T13:48:24;98931.88;;;8.03;44.47
34983;BME280;21187;50.976;13.720;2024-03-07T13:53:27;98926.84;;;8.10;44.12
34983;BME280;21187;50.976;13.720;2024-03-07T14:26:02;98915.75;;;8.38;43.37
34983;BME280;21187;50.976;13.720;2024-03-07T14:31:11;98916.44;;;8.53;42.85
34983;BME280;21187;50.976;13.720;2024-03-07T14:36:13;98915.78;;;8.56;42.79
34983;BME280;21187;50.976;13.720;2024-03-07T14:41:18;98911.97;;;8.57;43.31
34983;BME280;21187;50.976;13.720;2024-03-07T14:46:21;98911.50;;;8.55;43.18
34983;BME280;21187;50.976;13.720;2024-03-07T14:51:23;98903.69;;;8.44;42.78
34983;BME280;21187;50.976;13.720;2024-03-07T14:56:26;98897.50;;;8.44;42.99
34983;BME280;21187;50.976;13.720;2024-03-07T15:01:27;98904.50;;;8.45;43.38
34983;BME280;21187;50.976;13.720;2024-03-07T15:06:35;98902.13;;;8.43;42.94
34983;BME280;21187;50.976;13.720;2024-03-07T15:11:37;98900.53;;;8.42;43.05
34983;BME280;21187;50.976;13.720;2024-03-07T15:16:42;98906.84;;;8.38;42.43
34983;BME280;21187;50.976;13.720;2024-03-07T15:21:44;98904.00;;;8.34;42.74
34983;BME280;21187;50.976;13.720;2024-03-07T15:26:46;98908.75;;;8.37;42.88
34983;BME280;21187;50.976;13.720;2024-03-07T15:31:49;98906.22;;;8.32;42.83
34983;BME280;21187;50.976;13.720;2024-03-07T15:36:59;98896.69;;;8.26;43.06
34983;BME280;21187;50.976;13.720;2024-03-07T15:42:03;98900.94;;;8.18;42.99
34983;BME280;21187;50.976;13.720;2024-03-07T15:47:05;98898.25;;;8.09;42.90
34983;BME280;21187;50.976;13.720;2024-03-07T15:52:09;98906.31;;;8.00;42.92
34983;BME280;21187;50.976;13.720;2024-03-07T15:57:13;98894.91;;;8.04;42.58
34983;BME280;21187;50.976;13.720;2024-03-07T16:02:17;98902.34;;;7.98;42.56
34983;BME280;21187;50.976;13.720;2024-03-07T16:07:20;98895.81;;;7.90;43.03
34983;BME280;21187;50.976;13.720;2024-03-07T16:12:22;98894.41;;;7.93;42.89
34983;BME280;21187;50.976;13.720;2024-03-07T16:17:24;98886.31;;;7.93;43.12
34983;BME280;21187;50.976;13.720;2024-03-07T16:22:27;98881.69;;;7.85;42.95
34983;BME280;21187;50.976;13.720;2024-03-07T16:27:29;98885.34;;;7.80;42.92
34983;BME280;21187;50.976;13.720;2024-03-07T16:32:35;98886.59;;;7.74;42.81
34983;BME280;21187;50.976;13.720;2024-03-07T16:37:41;98892.59;;;7.71;42.88
34983;BME280;21187;50.976;13.720;2024-03-07T16:42:44;98885.59;;;7.61;42.58
34983;BME280;21187;50.976;13.720;2024-03-07T16:47:48;98891.13;;;7.56;42.92
34983;BME280;21187;50.976;13.720;2024-03-07T16:52:57;98890.94;;;7.52;43.08
34983;BME280;21187;50.976;13.720;2024-03-07T16:57:59;98898.88;;;7.48;42.85
34983;BME280;21187;50.976;13.720;2024-03-07T17:03:08;98899.84;;;7.53;43.12
34983;BME280;21187;50.976;13.720;2024-03-07T17:08:12;98908.72;;;7.53;42.83
34983;BME280;21187;50.976;13.720;2024-03-07T17:13:16;98905.19;;;7.44;42.93
34983;BME280;21187;50.976;13.720;2024-03-07T17:18:18;98913.84;;;7.32;43.16
34983;BME280;21187;50.976;13.720;2024-03-07T17:23:23;98913.97;;;7.27;43.36
34983;BME280;21187;50.976;13.720;2024-03-07T17:28:27;98925.25;;;7.29;43.10
34983;BME280;21187;50.976;13.720;2024-03-07T17:33:30;98925.25;;;7.29;43.05
34983;BME280;21187;50.976;13.720;2024-03-07T17:38:33;98911.28;;;7.27;43.10
34983;BME280;21187;50.976;13.720;2024-03-07T17:43:36;98916.22;;;7.25;42.75
34983;BME280;21187;50.976;13.720;2024-03-07T17:48:39;98922.50;;;7.20;42.90
34983;BME280;21187;50.976;13.720;2024-03-07T17:53:41;98921.84;;;7.14;42.97
34983;BME280;21187;50.976;13.720;2024-03-07T17:58:43;98915.97;;;7.12;42.78
34983;BME280;21187;50.976;13.720;2024-03-07T18:03:45;98922.94;;;7.13;43.10
34983;BME280;21187;50.976;13.720;2024-03-07T18:08:49;98907.28;;;7.15;43.12
34983;BME280;21187;50.976;13.720;2024-03-07T18:14:01;98916.16;;;7.16;42.98
34983;BME280;21187;50.976;13.720;2024-03-07T18:19:03;98920.38;;;7.08;42.90
34983;BME280;21187;50.976;13.720;2024-03-07T18:24:08;98921.00;;;7.05;43.26
34983;BME280;21187;50.976;13.720;2024-03-07T18:29:11;98920.03;;;7.01;43.19
34983;BME280;21187;50.976;13.720;2024-03-07T18:34:14;98908.28;;;6.97;43.13
34983;BME280;21187;50.976;13.720;2024-03-07T18:39:15;98915.25;;;6.98;43.00
34983;BME280;21187;50.976;13.720;2024-03-07T18:44:17;98916.06;;;6.98;43.40
34983;BME280;21187;50.976;13.720;2024-03-07T18:49:19;98922.84;;;6.96;43.19
34983;BME280;21187;50.976;13.720;2024-03-07T18:54:21;98923.47;;;6.93;43.53
34983;BME280;21187;50.976;13.720;2024-03-07T18:59:25;98920.59;;;6.89;43.33
34983;BME280;21187;50.976;13.720;2024-03-07T19:04:27;98919.59;;;6.85;43.54
34983;BME280;21187;50.976;13.720;2024-03-07T19:09:31;98921.81;;;6.83;43.53
34983;BME280;21187;50.976;13.720;2024-03-07T19:14:34;98919.09;;;6.83;43.49
34983;BME280;21187;50.976;13.720;2024-03-07T19:19:38;98915.63;;;6.82;43.52
34983;BME280;21187;50.976;13.720;2024-03-07T19:24:42;98909.75;;;6.80;43.54
34983;BME280;21187;50.976;13.720;2024-03-07T19:29:45;98906.59;;;6.78;43.42
34983;BME280;21187;50.976;13.720;2024-03-07T19:34:50;98908.78;;;6.76;43.44
34983;BME280;21187;50.976;13.720;2024-03-07T19:39:51;98904.97;;;6.77;43.65
34983;BME280;21187;50.976;13.720;2024-03-07T19:44:55;98902.28;;;6.77;43.41
34983;BME280;21187;50.976;13.720;2024-03-07T19:49:59;98900.34;;;6.69;43.67
34983;BME280;21187;50.976;13.720;2024-03-07T19:55:01;98902.03;;;6.65;43.54
34983;BME280;21187;50.976;13.720;2024-03-07T20:00:05;98887.66;;;6.70;43.50
34983;BME280;21187;50.976;13.720;2024-03-07T20:05:14;98890.03;;;6.71;43.51
34983;BME280;21187;50.976;13.720;2024-03-07T20:10:18;98889.25;;;6.71;43.71
34983;BME280;21187;50.976;13.720;2024-03-07T20:15:22;98885.75;;;6.70;43.53
34983;BME280;21187;50.976;13.720;2024-03-07T20:20:25;98879.47;;;6.75;43.67
34983;BME280;21187;50.976;13.720;2024-03-07T20:25:31;98881.50;;;6.69;43.38
34983;BME280;21187;50.976;13.720;2024-03-07T20:30:36;98868.50;;;6.71;43.66
34983;BME280;21187;50.976;13.720;2024-03-07T20:35:39;98872.28;;;6.70;43.83
34983;BME280;21187;50.976;13.720;2024-03-07T20:40:41;98875.09;;;6.65;43.71
34983;BME280;21187;50.976;13.720;2024-03-07T20:45:43;98875.72;;;6.62;43.51
34983;BME280;21187;50.976;13.720;2024-03-07T20:50:48;98864.00;;;6.58;43.88
34983;BME280;21187;50.976;13.720;2024-03-07T20:55:49;98869.81;;;6.51;43.98
34983;BME280;21187;50.976;13.720;2024-03-07T21:00:51;98860.91;;;6.50;44.02
34983;BME280;21187;50.976;13.720;2024-03-07T21:05:54;98863.00;;;6.54;43.68
34983;BME280;21187;50.976;13.720;2024-03-07T21:10:56;98860.78;;;6.56;43.84
34983;BME280;21187;50.976;13.720;2024-03-07T21:15:58;98857.63;;;6.54;43.81
34983;BME280;21187;50.976;13.720;2024-03-07T21:21:00;98863.78;;;6.54;43.68
34983;BME280;21187;50.976;13.720;2024-03-07T21:26:02;98850.66;;;6.53;43.71
34983;BME280;21187;50.976;13.720;2024-03-07T21:31:04;98858.84;;;6.47;44.15
34983;BME280;21187;50.976;13.720;2024-03-07T21:36:06;98855.06;;;6.48;44.17
34983;BME280;21187;50.976;13.720;2024-03-07T21:41:09;98852.69;;;6.47;44.00
34983;BME280;21187;50.976;13.720;2024-03-07T21:46:11;98850.31;;;6.45;44.36
34983;BME280;21187;50.976;13.720;2024-03-07T21:51:15;98847.09;;;6.43;44.05
34983;BME280;21187;50.976;13.720;2024-03-07T21:56:28;98843.44;;;6.39;44.22
34983;BME280;21187;50.976;13.720;2024-03-07T22:01:34;98836.47;;;6.38;44.22
34983;BME280;21187;50.976;13.720;2024-03-07T22:06:42;98837.56;;;6.37;44.34
34983;BME280;21187;50.976;13.720;2024-03-07T22:11:44;98853.09;;;6.40;44.17
34983;BME280;21187;50.976;13.720;2024-03-07T22:16:52;98838.53;;;6.41;44.10
34983;BME280;21187;50.976;13.720;2024-03-07T22:21:58;98833.66;;;6.43;43.89
34983;BME280;21187;50.976;13.720;2024-03-07T22:26:59;98841.41;;;6.45;44.50
34983;BME280;21187;50.976;13.720;2024-03-07T22:32:02;98836.34;;;6.43;44.28
34983;BME280;21187;50.976;13.720;2024-03-07T22:37:04;98832.56;;;6.44;44.38
34983;BME280;21187;50.976;13.720;2024-03-07T22:42:07;98834.16;;;6.45;44.32
34983;BME280;21187;50.976;13.720;2024-03-07T22:47:13;98827.19;;;6.44;44.17
34983;BME280;21187;50.976;13.720;2024-03-07T22:52:15;98825.59;;;6.43;44.72
34983;BME280;21187;50.976;13.720;2024-03-07T22:57:17;98816.84;;;6.38;44.65
34983;BME280;21187;50.976;13.720;2024-03-07T23:02:19;98813.47;;;6.32;44.51
34983;BME280;21187;50.976;13.720;2024-03-07T23:07:21;98813.97;;;6.34;44.61
34983;BME280;21187;50.976;13.720;2024-03-07T23:12:23;98806.00;;;6.29;44.75
34983;BME280;21187;50.976;13.720;2024-03-07T23:17:26;98797.75;;;6.25;44.89
34983;BME280;21187;50.976;13.720;2024-03-07T23:22:28;98791.09;;;6.23;44.56
34983;BME280;21187;50.976;13.720;2024-03-07T23:27:30;98789.63;;;6.16;44.92
34983;BME280;21187;50.976;13.720;2024-03-07T23:32:34;98792.56;;;6.06;44.95
34983;BME280;21187;50.976;13.720;2024-03-07T23:37:35;98792.66;;;6.01;44.86
34983;BME280;21187;50.976;13.720;2024-03-07T23:42:37;98789.09;;;5.92;44.86
34983;BME280;21187;50.976;13.720;2024-03-07T23:47:40;98784.53;;;5.78;45.13
34983;BME280;21187;50.976;13.720;2024-03-07T23:52:44;98766.44;;;5.70;45.34
34983;BME280;21187;50.976;13.720;2024-03-07T23:57:46;98772.63;;;5.57;44.89
